Time;durP1;ratioP1;P1;durP2;ratioP2;P2;SDS_P1;SDS_P2;PMS_P1;PMS_P2;Temp;Humidity;BMP_temperature;BMP_pressure;BME280_temperature;BME280_humidity;BME280_pressure;Samples;Min_cycle;Max_cycle;Signal;HPM_P1;HPM_P2
2023/06/29 00:02:11;;;;;;;12.40;11.05;;;;;;;-145.63;64.17;39071.19;5081725;28;20047;-69
2023/06/29 00:04:37;;;;;;;12.90;11.60;;;;;;;-145.63;64.24;39049.66;5071486;28;20043;-70
2023/06/29 00:07:03;;;;;;;13.82;12.30;;;;;;;-145.63;64.21;39096.59;5062913;28;20025;-69
2023/06/29 00:09:28;;;;;;;11.93;10.73;;;;;;;-145.63;63.98;39063.34;5064069;28;20045;-70
2023/06/29 00:11:55;;;;;;;11.70;10.55;;;;;;;-145.63;63.76;39114.22;5063992;28;20029;-69
2023/06/29 00:14:20;;;;;;;11.85;10.15;;;;;;;-145.63;63.57;39092.69;5083044;28;20029;-69
2023/06/29 00:16:50;;;;;;;12.98;11.25;;;;;;;-145.63;63.47;39053.59;5070229;28;20029;-70
2023/06/29 00:19:16;;;;;;;11.63;10.43;;;;;;;-145.63;63.53;39039.88;5073824;28;20028;-70
2023/06/29 00:21:42;;;;;;;13.02;11.73;;;;;;;-145.63;63.25;39041.84;5078741;28;20032;-69
2023/06/29 00:24:11;;;;;;;11.80;10.63;;;;;;;-145.63;63.53;38795.44;5063840;28;20021;-69
2023/06/29 00:26:40;;;;;;;11.88;10.52;;;;;;;-145.63;63.75;39067.28;5063767;28;20286;-70
2023/06/29 00:29:05;;;;;;;10.80;9.70;;;;;;;-145.63;63.12;39035.97;5062316;28;20025;-68
2023/06/29 00:31:31;;;;;;;10.30;9.30;;;;;;;-145.63;63.04;39053.59;5063615;28;20233;-70
2023/06/29 00:33:57;;;;;;;10.75;9.68;;;;;;;-145.63;62.43;39125.94;5068948;28;20040;-69
2023/06/29 00:36:22;;;;;;;11.00;9.85;;;;;;;-145.63;62.54;39055.53;5080346;28;20020;-70
2023/06/29 00:38:48;;;;;;;10.70;9.70;;;;;;;-145.63;62.37;39057.50;5063817;28;20035;-69
2023/06/29 00:41:14;;;;;;;10.23;9.23;;;;;;;-145.63;62.44;39061.41;5067869;28;20032;-70
2023/06/29 00:43:42;;;;;;;10.93;9.77;;;;;;;-145.63;62.63;39067.28;5076290;28;20063;-70
2023/06/29 00:46:08;;;;;;;9.38;8.48;;;;;;;-145.63;61.85;39061.41;5075240;28;20186;-70
2023/06/29 00:48:38;;;;;;;8.90;8.00;;;;;;;-145.63;62.00;39047.72;5067266;28;20131;-69
2023/06/29 00:51:05;;;;;;;9.02;8.13;;;;;;;-145.63;62.10;39094.66;5083359;28;20468;-69
2023/06/29 00:53:31;;;;;;;11.57;9.15;;;;;;;-145.63;62.13;39030.13;5063788;28;20033;-70
2023/06/29 00:55:58;;;;;;;9.02;7.75;;;;;;;-145.63;61.84;39014.47;5078303;28;20086;-70
2023/06/29 00:58:24;;;;;;;9.27;8.48;;;;;;;-145.63;61.81;39049.66;5072959;28;20305;-70
2023/06/29 01:00:50;;;;;;;8.27;7.53;;;;;;;-145.63;61.71;39022.28;5069411;28;20297;-70
2023/06/29 01:03:16;;;;;;;6.55;5.95;;;;;;;-145.63;61.38;39086.81;5081503;28;20016;-70
2023/06/29 01:06:04;;;;;;;7.22;6.40;;;;;;;-145.63;100.00;61273.97;5064120;28;20025;-70
2023/06/29 01:08:36;;;;;;;8.27;7.47;;;;;;;-145.63;61.60;39024.25;5083395;28;20052;-69
2023/06/29 01:11:03;;;;;;;9.73;7.90;;;;;;;-145.63;61.86;39069.22;5063363;28;20040;-69
2023/06/29 01:13:31;;;;;;;8.65;7.28;;;;;;;-145.63;62.05;39092.69;5073593;28;20107;-70
2023/06/29 01:15:59;;;;;;;10.68;8.32;;;;;;;-145.63;62.29;38461.06;5076966;28;20032;-69
2023/06/29 01:18:27;;;;;;;8.10;7.03;;;;;;;-145.63;61.95;39041.84;5065583;28;20131;-70
2023/06/29 01:20:53;;;;;;;8.80;7.68;;;;;;;-145.63;62.41;39034.03;5083345;28;20092;-70
2023/06/29 01:23:27;;;;;;;9.15;7.82;;;;;;;-145.63;62.23;39012.50;5065562;28;20255;-70
2023/06/29 01:25:55;;;;;;;8.48;7.35;;;;;;;-145.63;61.92;39067.28;5063213;28;20033;-70
2023/06/29 01:28:20;;;;;;;8.80;7.13;;;;;;;-145.63;62.00;39028.16;5065882;28;20233;-70
2023/06/29 01:30:49;;;;;;;7.78;6.97;;;;;;;-145.63;61.86;39000.78;5068089;28;20024;-70
2023/06/29 01:33:21;;;;;;;8.77;7.20;;;;;;;-145.63;61.44;39012.50;5082208;28;20308;-70
2023/06/29 01:35:48;;;;;;;7.28;6.57;;;;;;;-145.63;61.20;38975.34;5063567;28;20029;-69
2023/06/29 01:38:26;;;;;;;7.03;6.38;;;;;;;-145.63;61.35;39026.19;5080467;28;20037;-69
2023/06/29 01:40:55;;;;;;;7.10;6.40;;;;;;;-145.63;61.24;39006.66;5069158;28;20024;-70
2023/06/29 01:43:24;;;;;;;7.50;6.80;;;;;;;-145.63;61.38;39008.59;5063344;28;20256;-69
2023/06/29 01:45:50;;;;;;;8.20;7.00;;;;;;;-145.63;61.40;38996.88;5071133;28;20024;-70
2023/06/29 01:48:17;;;;;;;7.63;6.93;;;;;;;-145.63;61.36;38996.88;5086459;28;20025;-68
2023/06/29 01:50:44;;;;;;;8.15;7.45;;;;;;;-145.63;61.11;38973.41;5067325;28;20100;-69
2023/06/29 01:53:09;;;;;;;7.38;6.63;;;;;;;-145.63;61.11;38991.00;5083127;28;20108;-69
2023/06/29 01:55:35;;;;;;;8.07;6.75;;;;;;;-145.63;61.17;38996.88;5075646;28;20036;-69
2023/06/29 01:58:00;;;;;;;7.72;6.90;;;;;;;-145.63;61.56;39018.38;5066848;28;20032;-69
2023/06/29 02:00:26;;;;;;;8.02;7.28;;;;;;;-145.63;61.77;38987.09;5066972;28;20047;-69
2023/06/29 02:02:52;;;;;;;5.97;5.38;;;;;;;-145.63;61.96;39006.66;5066877;28;20298;-69
2023/06/29 02:05:19;;;;;;;7.93;7.20;;;;;;;-145.63;61.88;39008.59;5066926;28;20075;-69
2023/06/29 02:07:45;;;;;;;6.75;6.10;;;;;;;-145.63;61.88;39006.66;5066578;28;20108;-69
2023/06/29 02:10:11;;;;;;;6.40;5.80;;;;;;;-145.63;61.80;39004.69;5066915;28;20036;-69
2023/06/29 02:12:39;;;;;;;5.53;5.03;;;;;;;-145.63;61.30;38998.81;5066644;28;20029;-69
2023/06/29 02:15:05;;;;;;;6.10;5.55;;;;;;;-145.63;61.66;39006.66;5066685;28;20055;-69
2023/06/29 02:17:31;;;;;;;5.72;5.22;;;;;;;-145.63;61.01;38989.03;5085082;28;20048;-69
2023/06/29 02:20:17;;;;;;;5.00;4.60;;;;;;;-145.63;61.15;38973.41;5068664;28;20032;-70
2023/06/29 02:22:43;;;;;;;5.07;4.57;;;;;;;-145.63;61.34;38973.41;5078746;28;20021;-69
2023/06/29 02:25:11;;;;;;;5.68;5.18;;;;;;;-145.63;61.29;39002.72;5075454;28;20320;-69
2023/06/29 02:27:36;;;;;;;5.90;5.40;;;;;;;-145.63;61.75;39016.44;5069207;28;20035;-68
2023/06/29 02:30:03;;;;;;;7.57;6.65;;;;;;;-145.63;61.68;39016.44;5086423;28;20260;-70
2023/06/29 02:32:29;;;;;;;7.60;6.90;;;;;;;-145.63;61.40;39039.88;5067877;28;20032;-69
2023/06/29 02:34:55;;;;;;;8.65;6.47;;;;;;;-145.63;61.74;38992.97;5079068;28;20305;-70
2023/06/29 02:37:20;;;;;;;6.93;6.32;;;;;;;-145.63;61.45;38979.28;5077316;28;20031;-69
2023/06/29 02:39:46;;;;;;;7.60;6.53;;;;;;;-145.63;61.56;38994.91;5069221;28;20028;-70
2023/06/29 02:42:11;;;;;;;7.78;7.07;;;;;;;-145.63;61.44;38985.13;5066173;28;20086;-69
2023/06/29 02:44:37;;;;;;;7.53;6.82;;;;;;;-145.63;61.29;38992.97;5065860;28;20032;-68
2023/06/29 02:47:03;;;;;;;6.55;5.95;;;;;;;-145.63;61.53;39008.59;5080714;28;20024;-69
2023/06/29 02:49:28;;;;;;;7.40;6.70;;;;;;;-145.63;61.21;38977.31;5074378;28;20293;-69
2023/06/29 02:51:54;;;;;;;8.27;7.38;;;;;;;-145.63;61.76;39016.44;5069886;28;20031;-70
2023/06/29 02:54:19;;;;;;;9.32;8.20;;;;;;;-145.63;61.26;38983.19;5085262;28;20054;-70
2023/06/29 02:56:45;;;;;;;8.75;7.95;;;;;;;-145.63;61.46;39135.72;5064440;28;20029;-70
2023/06/29 02:59:10;;;;;;;11.40;10.30;;;;;;;-145.63;61.58;38975.34;5081299;28;20059;-70
2023/06/29 03:01:36;;;;;;;11.63;10.52;;;;;;;-145.63;61.72;38971.44;5074581;28;20025;-70
2023/06/29 03:04:01;;;;;;;14.48;13.07;;;;;;;-145.63;61.81;39039.88;5063893;28;20349;-71
2023/06/29 03:06:27;;;;;;;13.85;12.48;;;;;;;-145.63;61.69;39028.16;5066453;28;20321;-70
2023/06/29 03:08:53;;;;;;;16.83;14.25;;;;;;;-145.63;61.90;39010.56;5085224;28;20056;-71
2023/06/29 03:11:18;;;;;;;16.65;13.98;;;;;;;-145.63;62.13;39035.97;5068692;28;20032;-71
2023/06/29 03:13:44;;;;;;;16.20;14.52;;;;;;;-145.63;61.69;39022.28;5077412;28;20051;-71
2023/06/29 03:16:09;;;;;;;15.18;13.68;;;;;;;-145.63;61.31;39030.13;5078116;28;20025;-71
2023/06/29 03:18:35;;;;;;;11.68;10.55;;;;;;;-145.63;60.30;39034.03;5067136;28;20033;-71
2023/06/29 03:21:01;;;;;;;12.93;11.73;;;;;;;-145.63;60.75;39012.50;5084920;28;20020;-70
2023/06/29 03:23:28;;;;;;;12.95;11.75;;;;;;;-145.63;60.84;38985.13;5067493;28;20221;-71
2023/06/29 03:25:53;;;;;;;12.45;11.15;;;;;;;-145.63;60.79;38985.13;5063888;28;20025;-70
2023/06/29 03:28:19;;;;;;;13.77;12.38;;;;;;;-145.63;60.24;38983.19;5066873;28;20032;-70
2023/06/29 03:30:44;;;;;;;12.43;11.00;;;;;;;-145.63;59.99;39032.06;5063750;28;20029;-70
2023/06/29 03:33:10;;;;;;;13.35;11.52;;;;;;;-145.63;60.19;39026.19;5063572;28;20040;-70
2023/06/29 03:35:35;;;;;;;12.95;11.25;;;;;;;-145.63;60.74;39020.34;5083785;28;20052;-70
2023/06/29 03:38:07;;;;;;;10.73;9.63;;;;;;;-145.63;59.67;39067.28;5070826;28;20025;-69
2023/06/29 03:40:32;;;;;;;9.50;8.70;;;;;;;-145.63;59.63;39018.38;5067107;28;20044;-69
2023/06/29 03:42:58;;;;;;;9.63;8.73;;;;;;;-145.63;59.46;39016.44;5069509;28;20058;-69
2023/06/29 03:45:24;;;;;;;10.75;9.65;;;;;;;-145.63;60.34;39004.69;5083910;28;20040;-71
2023/06/29 03:47:49;;;;;;;10.27;9.27;;;;;;;-145.63;59.80;38981.22;5064541;28;20090;-69
2023/06/29 03:50:15;;;;;;;9.55;8.65;;;;;;;-145.63;59.34;38994.91;5080409;28;20336;-69
2023/06/29 03:52:40;;;;;;;9.73;8.45;;;;;;;-145.63;58.90;39014.47;5072689;28;20070;-69
2023/06/29 03:55:07;;;;;;;8.85;7.95;;;;;;;-145.63;58.55;38963.63;5070249;28;20039;-70
2023/06/29 03:57:33;;;;;;;8.77;7.88;;;;;;;-145.63;58.27;38996.88;5082491;28;20233;-71
2023/06/29 03:59:58;;;;;;;10.20;8.35;;;;;;;-145.63;59.20;39016.44;5064245;28;20052;-70
2023/06/29 04:02:24;;;;;;;9.63;8.32;;;;;;;-145.63;58.85;38989.03;5081019;28;20029;-70
2023/06/29 04:04:49;;;;;;;8.50;7.75;;;;;;;-145.63;58.42;38996.88;5064222;28;20040;-69
2023/06/29 04:07:15;;;;;;;9.75;7.72;;;;;;;-145.63;58.24;39032.06;5070028;28;20216;-70
2023/06/29 04:09:40;;;;;;;8.23;7.00;;;;;;;-145.63;57.57;39002.72;5081500;28;20061;-70
2023/06/29 04:12:06;;;;;;;10.63;6.95;;;;;;;-145.63;58.11;39008.59;5079120;28;20309;-70
2023/06/29 04:14:32;;;;;;;8.02;7.32;;;;;;;-145.63;58.25;39008.59;5082174;28;20368;-70
2023/06/29 04:16:57;;;;;;;7.78;7.07;;;;;;;-145.63;57.94;39032.06;5070247;28;20029;-70
2023/06/29 04:19:23;;;;;;;7.10;6.50;;;;;;;-145.63;58.42;39028.16;5072403;28;20070;-70
2023/06/29 04:21:48;;;;;;;8.25;7.40;;;;;;;-145.63;57.97;39026.19;5079844;28;20025;-69
2023/06/29 04:24:14;;;;;;;7.80;7.10;;;;;;;-145.63;57.82;39000.78;5063800;28;20035;-71
2023/06/29 04:26:41;;;;;;;9.32;7.30;;;;;;;-145.63;58.55;38998.81;5063759;28;20025;-69
2023/06/29 04:29:07;;;;;;;8.20;7.38;;;;;;;-145.63;57.90;38989.03;5063418;28;20049;-70
2023/06/29 04:31:33;;;;;;;8.30;7.38;;;;;;;-145.63;58.57;39024.25;5072783;28;20269;-70
2023/06/29 04:33:59;;;;;;;8.27;7.47;;;;;;;-145.63;57.91;39020.34;5063244;28;20035;-69
2023/06/29 04:36:29;;;;;;;8.15;7.30;;;;;;;-145.63;58.30;39208.06;5062502;28;20394;-69
2023/06/29 04:38:54;;;;;;;8.48;6.88;;;;;;;-145.63;58.27;39034.03;5063568;28;20047;-70
2023/06/29 04:41:30;;;;;;;7.53;6.72;;;;;;;-145.63;58.49;39018.38;5063298;28;20028;-69
2023/06/29 04:43:59;;;;;;;7.40;6.60;;;;;;;-145.63;58.32;39039.88;5062792;28;20092;-69
2023/06/29 04:46:28;;;;;;;7.90;7.03;;;;;;;-145.63;58.49;39012.50;5063184;28;20091;-69
2023/06/29 04:48:53;;;;;;;8.32;7.53;;;;;;;-145.63;58.91;39039.88;5067268;28;20060;-69
2023/06/29 04:51:19;;;;;;;7.93;7.07;;;;;;;-145.63;58.48;39037.94;5081989;28;20043;-69
2023/06/29 04:53:45;;;;;;;6.78;6.18;;;;;;;-145.63;57.88;39035.97;5062566;28;20021;-68
2023/06/29 04:56:10;;;;;;;8.05;7.20;;;;;;;-145.63;57.59;39018.38;5078210;28;20032;-68
2023/06/29 04:58:36;;;;;;;8.52;7.70;;;;;;;-145.63;57.36;39024.25;5073512;28;20025;-72
2023/06/29 05:01:01;;;;;;;8.75;7.05;;;;;;;-145.63;57.50;39045.75;5068052;28;20309;-70
2023/06/29 05:03:27;;;;;;;8.57;7.68;;;;;;;-145.63;57.49;39039.88;5083031;28;20186;-69
2023/06/29 05:05:53;;;;;;;8.27;7.47;;;;;;;-145.63;57.51;39035.97;5063111;28;20078;-70
2023/06/29 05:08:18;;;;;;;8.45;7.65;;;;;;;-145.63;58.14;38836.50;5077969;28;20082;-71
2023/06/29 05:10:44;;;;;;;8.30;7.55;;;;;;;-145.63;57.88;39067.28;5072217;28;20086;-69
2023/06/29 05:13:09;;;;;;;9.60;7.88;;;;;;;-145.63;58.05;39047.72;5069171;28;20225;-69
2023/06/29 05:15:35;;;;;;;8.60;7.53;;;;;;;-145.63;57.40;39028.16;5080763;28;20091;-70
2023/06/29 05:18:00;;;;;;;8.48;7.68;;;;;;;-145.63;57.57;39039.88;5063026;28;20229;-69
2023/06/29 05:20:26;;;;;;;8.00;7.20;;;;;;;-145.63;57.36;39028.16;5081610;28;20371;-69
2023/06/29 05:22:52;;;;;;;8.55;7.63;;;;;;;-145.63;57.51;39024.25;5075425;28;20194;-70
2023/06/29 05:25:17;;;;;;;9.02;7.30;;;;;;;-145.63;56.99;39024.25;5067130;28;20325;-71
2023/06/29 05:27:43;;;;;;;9.25;7.13;;;;;;;-145.63;57.33;39008.59;5069752;28;20328;-71
2023/06/29 05:30:09;;;;;;;8.32;6.95;;;;;;;-145.63;57.11;39043.81;5087215;28;20070;-70
2023/06/29 05:32:35;;;;;;;7.80;7.03;;;;;;;-145.63;57.51;39035.97;5069560;28;20092;-69
2023/06/29 05:35:01;;;;;;;8.55;6.97;;;;;;;-145.63;56.34;38991.00;5067099;28;20033;-70
2023/06/29 05:37:29;;;;;;;8.60;7.03;;;;;;;-145.63;56.78;39008.59;5074147;28;20062;-69
2023/06/29 05:39:56;;;;;;;9.95;6.88;;;;;;;-145.63;56.95;39000.78;5083108;28;20033;-70
2023/06/29 05:42:22;;;;;;;7.85;7.13;;;;;;;-145.63;56.06;38955.81;5067170;28;20116;-70
2023/06/29 05:44:48;;;;;;;7.65;6.93;;;;;;;-145.63;55.83;38963.63;5086371;28;20029;-70
2023/06/29 05:47:14;;;;;;;11.15;7.00;;;;;;;-145.63;56.57;38946.03;5071834;28;20033;-69
2023/06/29 05:49:39;;;;;;;7.13;6.43;;;;;;;-145.63;54.92;38938.19;5076662;28;20032;-69
2023/06/29 05:52:05;;;;;;;7.05;6.40;;;;;;;-145.63;55.13;38928.44;5081154;28;20028;-70
2023/06/29 05:54:30;;;;;;;7.82;5.90;;;;;;;-145.63;54.20;38873.66;5067331;28;20029;-70
2023/06/29 05:56:56;;;;;;;4.95;4.55;;;;;;;-145.63;52.71;38903.00;5086670;28;20034;-71
2023/06/29 05:59:22;;;;;;;6.57;5.03;;;;;;;-145.63;53.23;38922.56;5071253;28;20037;-69
2023/06/29 06:01:47;;;;;;;5.68;5.18;;;;;;;-145.63;53.11;38869.75;5066504;28;20329;-70
2023/06/29 06:04:14;;;;;;;18.23;6.15;;;;;;;-145.63;54.36;38865.84;5066640;28;20097;-70
2023/06/29 06:06:39;;;;;;;8.63;5.25;;;;;;;-145.63;54.50;38852.16;5066553;28;20075;-69
2023/06/29 06:09:06;;;;;;;6.55;5.38;;;;;;;-145.63;53.17;38818.91;5066215;28;20325;-71
2023/06/29 06:11:31;;;;;;;7.10;5.72;;;;;;;-145.63;54.07;38840.44;5066462;28;20032;-70
2023/06/29 06:13:57;;;;;;;9.25;6.45;;;;;;;-145.63;52.40;38838.47;5066510;28;20099;-70
2023/06/29 06:16:23;;;;;;;8.35;6.50;;;;;;;-145.63;52.76;38842.38;5073819;28;20039;-70
2023/06/29 06:18:48;;;;;;;5.50;5.00;;;;;;;-145.63;51.71;38852.16;5083583;28;20035;-70
2023/06/29 06:21:14;;;;;;;11.25;6.43;;;;;;;-145.63;52.06;38803.28;5066257;28;20037;-70
2023/06/29 06:23:40;;;;;;;6.75;6.13;;;;;;;-145.63;51.77;38805.22;5084017;28;20281;-72
2023/06/29 06:26:05;;;;;;;7.07;6.15;;;;;;;-145.63;51.45;38779.81;5067402;28;20095;-71
2023/06/29 06:28:31;;;;;;;7.47;6.78;;;;;;;-145.63;49.61;38805.22;5074396;28;20024;-73
2023/06/29 06:30:57;;;;;;;6.68;5.97;;;;;;;-145.63;50.79;38766.13;5081517;28;20037;-70
2023/06/29 06:33:22;;;;;;;6.38;5.78;;;;;;;-145.63;49.62;38955.81;5064297;28;20035;-70
2023/06/29 06:35:48;;;;;;;6.55;5.82;;;;;;;-145.63;48.37;38824.78;5066642;28;20024;-70
2023/06/29 06:38:14;;;;;;;7.38;6.05;;;;;;;-145.63;48.33;38754.38;5053502;28;20021;-71
2023/06/29 06:40:39;;;;;;;6.15;5.63;;;;;;;-145.63;48.75;38742.66;5066778;28;20025;-71
2023/06/29 06:43:05;;;;;;;7.47;5.88;;;;;;;-145.63;49.48;38723.09;5070281;28;20229;-70
2023/06/29 06:45:30;;;;;;;6.60;5.53;;;;;;;-145.63;48.65;38717.22;5086138;28;20028;-71
2023/06/29 06:47:56;;;;;;;5.38;4.78;;;;;;;-145.63;47.05;38736.78;5065382;28;20033;-71
2023/06/29 06:50:22;;;;;;;8.40;5.70;;;;;;;-145.63;47.80;38789.59;5080549;28;20028;-70
2023/06/29 06:52:47;;;;;;;6.35;5.07;;;;;;;-145.63;48.25;38695.72;5075261;28;20035;-71
2023/06/29 06:55:13;;;;;;;5.88;5.35;;;;;;;-145.63;47.72;38672.25;5068890;28;20028;-71
2023/06/29 06:57:39;;;;;;;7.13;5.78;;;;;;;-145.63;45.74;38754.38;5083621;28;20028;-72
2023/06/29 07:00:05;;;;;;;6.82;5.55;;;;;;;-145.63;46.88;38707.44;5065658;28;20035;-73
2023/06/29 07:02:31;;;;;;;7.28;5.60;;;;;;;-145.63;46.47;38652.69;5080789;28;20221;-71
2023/06/29 07:04:57;;;;;;;6.50;4.97;;;;;;;-145.63;46.24;38738.75;5073716;28;20020;-70
2023/06/29 07:07:22;;;;;;;7.70;4.85;;;;;;;-145.63;46.46;38693.75;5071922;28;20024;-70
2023/06/29 07:09:48;;;;;;;6.32;4.78;;;;;;;-145.63;46.20;38664.44;5081935;28;20059;-69
2023/06/29 07:12:13;;;;;;;5.63;4.95;;;;;;;-145.63;45.27;38762.22;5065489;28;20040;-70
2023/06/29 07:14:39;;;;;;;7.85;4.90;;;;;;;-145.63;46.14;38709.41;5082297;28;20091;-70
2023/06/29 07:17:05;;;;;;;6.15;4.90;;;;;;;-145.63;45.96;38744.59;5072105;28;20064;-72
2023/06/29 07:19:31;;;;;;;8.85;5.70;;;;;;;-145.63;45.79;38644.88;5072936;28;20095;-70
2023/06/29 07:21:56;;;;;;;6.93;5.45;;;;;;;-145.63;46.69;38734.81;5081775;28;20309;-71
2023/06/29 07:24:22;;;;;;;6.75;5.20;;;;;;;-145.63;45.91;38738.75;5065302;28;20066;-71
2023/06/29 07:26:47;;;;;;;5.28;4.75;;;;;;;-145.63;46.28;38646.84;5062796;28;20032;-72
2023/06/29 07:29:13;;;;;;;5.78;4.57;;;;;;;-145.63;45.28;38650.75;5062837;28;20028;-71
2023/06/29 07:31:39;;;;;;;6.97;5.45;;;;;;;-145.63;45.45;38648.78;5062455;28;20133;-71
2023/06/29 07:34:05;;;;;;;6.15;5.53;;;;;;;-145.63;44.33;38468.91;5063527;28;20139;-71
2023/06/29 07:36:31;;;;;;;7.78;6.05;;;;;;;-145.63;43.32;38652.69;5064525;28;20222;-70
2023/06/29 07:38:57;;;;;;;5.95;5.35;;;;;;;-145.63;43.34;38597.94;5063959;28;20032;-71
2023/06/29 07:41:23;;;;;;;6.50;4.70;;;;;;;-145.63;43.60;38578.41;5064435;28;20375;-71
2023/06/29 07:43:52;;;;;;;6.38;5.07;;;;;;;-145.63;44.76;38627.28;5075989;28;20032;-71
2023/06/29 07:46:18;;;;;;;8.43;6.00;;;;;;;-145.63;43.21;38662.47;5077491;28;20302;-72
2023/06/29 07:48:43;;;;;;;9.10;6.78;;;;;;;-145.63;43.32;38629.22;5065213;28;20111;-72
2023/06/29 07:51:09;;;;;;;9.18;7.25;;;;;;;-145.63;43.12;38601.84;5070457;28;20024;-71
2023/06/29 07:53:35;;;;;;;6.68;6.03;;;;;;;-145.63;43.17;38646.84;5080620;28;20027;-71
2023/06/29 07:56:01;;;;;;;8.00;5.40;;;;;;;-145.63;44.15;38586.22;5072425;28;20053;-70
2023/06/29 07:58:27;;;;;;;6.57;5.63;;;;;;;-145.63;43.30;38554.94;5079932;28;20028;-71
2023/06/29 08:00:54;;;;;;;7.97;6.30;;;;;;;-145.63;42.73;38588.16;5064591;28;20206;-69
2023/06/29 08:03:19;;;;;;;7.38;6.10;;;;;;;-145.63;42.28;38597.94;5082751;28;20259;-70
2023/06/29 08:05:45;;;;;;;9.50;5.95;;;;;;;-145.63;42.22;38570.56;5065990;28;20028;-68
2023/06/29 08:08:12;;;;;;;6.43;5.82;;;;;;;-145.63;42.66;38549.06;5076751;28;20056;-72
2023/06/29 08:10:38;;;;;;;6.60;6.00;;;;;;;-145.63;42.22;38668.34;5074293;28;20040;-71
2023/06/29 08:13:03;;;;;;;8.52;6.57;;;;;;;-145.63;41.83;38619.47;5067064;28;20095;-70
2023/06/29 08:15:29;;;;;;;13.55;7.53;;;;;;;-145.63;42.03;38466.94;5082685;28;20029;-70
2023/06/29 08:17:54;;;;;;;8.70;6.45;;;;;;;-145.63;41.36;38609.69;5064488;28;20048;-70
2023/06/29 08:20:20;;;;;;;8.18;5.63;;;;;;;-145.63;40.86;38574.47;5077959;28;20321;-70
2023/06/29 08:22:48;;;;;;;7.15;5.35;;;;;;;-145.63;39.60;38513.88;5074237;28;20028;-71
2023/06/29 08:25:14;;;;;;;6.95;5.05;;;;;;;-145.63;39.92;38551.03;5063539;28;20135;-69
2023/06/29 08:27:39;;;;;;;7.15;5.15;;;;;;;-145.63;39.19;38474.75;5055124;28;20025;-71
2023/06/29 08:30:05;;;;;;;6.38;5.70;;;;;;;-145.63;38.93;38519.72;5054487;28;20044;-71
2023/06/29 08:32:31;;;;;;;6.13;5.53;;;;;;;-145.63;39.29;38488.44;5055899;28;20025;-71
2023/06/29 08:34:56;;;;;;;7.47;5.57;;;;;;;-145.63;39.65;38435.66;5062800;28;20276;-70
2023/06/29 08:37:22;;;;;;;8.00;5.70;;;;;;;-145.63;39.34;38494.31;5063145;28;20206;-70
2023/06/29 08:39:47;;;;;;;8.43;5.80;;;;;;;-145.63;39.41;38504.09;5055794;28;20031;-72
2023/06/29 08:42:13;;;;;;;9.10;6.57;;;;;;;-145.63;41.12;38484.53;5049095;28;20036;-71
2023/06/29 08:44:38;;;;;;;8.45;5.80;;;;;;;-145.63;39.10;38394.59;5076274;28;20028;-71
2023/06/29 08:47:05;;;;;;;7.75;6.00;;;;;;;-145.63;38.10;38418.06;5071199;28;20033;-71
2023/06/29 08:49:34;;;;;;;9.73;5.10;;;;;;;-145.63;38.75;38404.38;5052512;28;20055;-69
2023/06/29 08:52:03;;;;;;;6.00;5.40;;;;;;;-145.63;38.10;38441.53;5079036;28;20667;-70
2023/06/29 08:54:32;;;;;;;6.22;4.72;;;;;;;-145.63;39.24;38551.03;5062462;28;20083;-71
2023/06/29 08:57:01;;;;;;;6.05;5.38;;;;;;;-145.63;39.03;38459.13;5082188;28;20070;-69
2023/06/29 08:59:28;;;;;;;6.93;4.90;;;;;;;-145.63;37.56;38392.63;5068448;28;20052;-71
2023/06/29 09:01:57;;;;;;;5.82;4.47;;;;;;;-145.63;37.28;38363.31;5073192;28;20056;-70
2023/06/29 09:04:24;;;;;;;7.93;4.68;;;;;;;-145.63;36.08;38353.53;5077309;28;20031;-70
2023/06/29 09:06:53;;;;;;;7.10;4.07;;;;;;;-145.63;36.08;38351.56;5062889;28;20039;-70
2023/06/29 09:09:20;;;;;;;5.57;4.07;;;;;;;-145.63;36.29;38320.28;5063311;28;20334;-70
2023/06/29 09:11:45;;;;;;;5.53;4.05;;;;;;;-145.63;36.67;38312.47;5079802;28;20098;-70
2023/06/29 09:14:11;;;;;;;5.45;3.67;;;;;;;-145.63;37.14;38199.06;5070475;28;20029;-71
2023/06/29 09:16:58;;;;;;;5.78;4.05;;;;;;;-145.63;37.45;38332.03;5062845;28;20206;-71
2023/06/29 09:19:25;;;;;;;4.63;3.88;;;;;;;-145.63;36.44;38271.41;5068800;28;20037;-72
2023/06/29 09:21:51;;;;;;;6.20;4.13;;;;;;;-145.63;36.47;38328.13;5081590;28;20092;-71
2023/06/29 09:24:21;;;;;;;4.63;3.90;;;;;;;-145.63;36.74;38234.25;5062838;28;20020;-72
2023/06/29 09:26:53;;;;;;;6.00;4.38;;;;;;;-145.63;37.09;38255.78;5062815;28;20071;-71
2023/06/29 09:29:19;;;;;;;8.07;5.22;;;;;;;-145.63;38.00;38308.56;5062884;28;20032;-72
2023/06/29 09:31:58;;;;;;;6.55;4.97;;;;;;;-145.63;37.21;38418.06;5062293;28;20079;-71
2023/06/29 09:34:27;;;;;;;9.57;4.25;;;;;;;-145.63;39.67;38335.94;5040851;28;20021;-72
2023/06/29 09:36:54;;;;;;;6.30;4.57;;;;;;;-145.63;38.29;38363.31;5053903;28;20021;-72
2023/06/29 09:39:20;;;;;;;4.88;4.40;;;;;;;-145.63;37.86;38371.13;5048901;28;20040;-71
2023/06/29 09:41:46;;;;;;;10.35;4.93;;;;;;;-145.63;37.70;38345.72;5077556;28;20074;-71
2023/06/29 09:44:16;;;;;;;4.75;4.10;;;;;;;-145.63;36.48;38404.38;5071062;28;20064;-71
2023/06/29 09:46:42;;;;;;;4.07;3.53;;;;;;;-145.63;36.54;38345.72;5071126;28;20025;-72
2023/06/29 09:49:08;;;;;;;6.00;4.32;;;;;;;-145.63;36.61;38320.28;5078113;28;20031;-73
2023/06/29 09:51:34;;;;;;;5.30;3.63;;;;;;;-145.63;36.03;38339.84;5062692;28;20048;-71
2023/06/29 09:54:03;;;;;;;4.38;3.78;;;;;;;-145.63;36.83;38378.94;5080959;28;20036;-72
2023/06/29 09:56:33;;;;;;;5.00;3.80;;;;;;;-145.63;37.05;38371.13;5068426;28;20348;-71
2023/06/29 09:59:01;;;;;;;6.00;4.47;;;;;;;-145.63;37.41;38377.00;5073012;28;20066;-72
2023/06/29 10:01:28;;;;;;;8.00;4.13;;;;;;;-145.63;37.27;38378.94;5076940;28;20024;-73
2023/06/29 10:03:57;;;;;;;5.43;3.80;;;;;;;-145.63;37.57;38359.41;5062739;28;20086;-72
2023/06/29 10:06:31;;;;;;;4.72;3.88;;;;;;;-145.63;36.56;38406.31;5063957;28;20095;-70
2023/06/29 10:08:59;;;;;;;5.47;3.78;;;;;;;-145.63;36.56;38468.91;5066501;28;20059;-72
2023/06/29 10:11:31;;;;;;;6.30;4.00;;;;;;;-145.63;37.65;38367.22;5071508;28;20051;-72
2023/06/29 10:14:02;;;;;;;5.90;3.53;;;;;;;-145.63;36.36;38377.00;5078787;28;20087;-70
2023/06/29 10:16:35;;;;;;;4.35;3.95;;;;;;;-145.63;37.28;38359.41;5080347;28;20033;-71
2023/06/29 10:19:18;;;;;;;5.65;3.95;;;;;;;-145.63;36.31;38382.88;5068128;28;20064;-72
2023/06/29 10:21:45;;;;;;;5.22;3.95;;;;;;;-145.63;36.40;38273.38;5086185;28;20055;-72
2023/06/29 10:24:19;;;;;;;5.80;3.83;;;;;;;-145.63;37.16;38279.22;5052287;28;20033;-70
2023/06/29 10:26:47;;;;;;;4.30;3.80;;;;;;;-145.63;35.83;38451.28;5065566;28;20033;-71
2023/06/29 10:29:12;;;;;;;4.55;3.78;;;;;;;-145.63;36.25;38396.53;5060406;28;20037;-71
2023/06/29 10:31:45;;;;;;;5.20;4.00;;;;;;;-145.63;36.15;38351.56;5071651;28;20216;-72
2023/06/29 10:34:13;;;;;;;4.55;3.60;;;;;;;-145.63;35.96;38373.09;5081661;28;20220;-71
2023/06/29 10:36:49;;;;;;;5.18;3.80;;;;;;;-145.63;35.77;38425.88;5065475;28;20079;-73
2023/06/29 10:39:46;;;;;;;7.07;4.40;;;;;;;-145.63;36.13;38435.66;5045556;28;20060;-70
2023/06/29 10:42:23;;;;;;;7.22;4.45;;;;;;;-145.63;35.62;38398.50;5086223;28;20032;-72
2023/06/29 10:44:49;;;;;;;6.00;4.55;;;;;;;-145.63;35.98;38484.53;5067627;28;20152;-72
2023/06/29 10:47:28;;;;;;;8.23;5.00;;;;;;;-145.63;36.17;38421.97;5078035;28;20040;-71
2023/06/29 10:50:08;;;;;;;7.32;5.10;;;;;;;-145.63;35.63;38421.97;5076470;28;20091;-71
2023/06/29 10:52:34;;;;;;;7.00;5.35;;;;;;;-145.63;35.17;38371.13;5071897;28;20024;-72
2023/06/29 10:55:22;;;;;;;7.72;5.35;;;;;;;-145.63;35.10;38335.94;5083793;28;20279;-71
2023/06/29 10:58:14;;;;;;;7.72;5.57;;;;;;;-145.63;35.80;38388.72;5065578;28;20029;-70
2023/06/29 11:00:41;;;;;;;9.32;5.32;;;;;;;-145.63;35.74;38361.34;5057627;28;20065;-71
2023/06/29 11:03:11;;;;;;;10.73;5.88;;;;;;;-145.63;36.10;37796.31;5066173;28;20035;-71
2023/06/29 11:05:38;;;;;;;7.53;5.05;;;;;;;-145.63;34.88;38390.69;5066528;28;20056;-71
2023/06/29 11:08:08;;;;;;;6.22;5.45;;;;;;;-145.63;34.31;38437.59;5057860;28;20125;-70
2023/06/29 11:10:34;;;;;;;5.88;5.28;;;;;;;-145.63;34.64;38461.06;5057290;28;20029;-70
2023/06/29 11:13:00;;;;;;;6.25;4.60;;;;;;;-145.63;34.19;38443.47;5058423;28;20049;-70
2023/06/29 11:15:27;;;;;;;6.18;4.95;;;;;;;-145.63;33.94;38414.16;5053443;28;20321;-70